NCAR-RAP Real-Time Weather Data

Output produced by METARs form (26 May 2022  07:55 UTC)
found at http://weather.rap.ucar.edu/surface/
 
KCMH 260751Z 15010KT 10SM SCT100 BKN140 21/17 A3000 RMK AO2 SLP151 T02110172 $
KCMH 260651Z 16010KT 10SM FEW055 SCT095 OVC130 22/17 A3000 RMK AO2 SLP151 T02170172 $
KCMH 260551Z 15010KT 10SM BKN120 OVC250 22/17 A3000 RMK AO2 SLP152 T02170172 10256 20217 50004 $
KCMH 260451Z 15010G17KT 10SM FEW060 BKN250 22/17 A3000 RMK AO2 SLP154 T02170172 402720128 $
KCMH 260351Z 14013G17KT 10SM FEW110 BKN250 22/17 A2999 RMK AO2 SLP151 T02220172 $
KCMH 260251Z 14014G20KT 10SM SCT110 OVC250 24/18 A2999 RMK AO2 LTG DSNT W SLP149 T02390178 55003 $
KCMH 260151Z 12009KT 10SM BKN110 OVC250 24/20 A2998 RMK AO2 SLP146 T02390200 $
KCMH 260051Z 12008KT 10SM FEW070 SCT120 BKN250 24/20 A2999 RMK AO2 SLP149 T02390200 $
KCMH 252351Z 13013KT 10SM FEW070 SCT140 BKN250 26/19 A3000 RMK AO2 SLP152 T02560194 10272 20233 55014 $
KCMH 252251Z 14009G17KT 10SM FEW070 SCT140 BKN250 27/19 A2999 RMK AO2 SLP152 T02720189 $
KCMH 252151Z 13010KT 10SM SCT070 SCT140 BKN250 27/19 A3001 RMK AO2 SLP155 T02720189 $
KCMH 252051Z 15009KT 10SM SCT070 SCT150 OVC250 26/19 A3004 RMK AO2 SLP166 T02610189 56020 $
KCMH 252000Z COR 15009KT 9SM SCT050 SCT140 OVC250 26/19 A3006 RMK AO2 T02560189 $
KCMH 251951Z COR 15009KT SCT050 SCT140 OVC250 26/19 A3006 RMK AO2 SLP173 T02560189 $
KCMH 251851Z 11012KT 10SM FEW070 SCT130 OVC250 25/19 A3007 RMK AO2 SLP176 T02500189 $
KCMH 251751Z 13012KT 10SM SCT070 SCT130 OVC250 24/18 A3010 RMK AO2 SLP188 T02390183 10239 20178 58013 $
KCMH 251651Z 10012KT 10SM SCT065 BKN120 OVC250 23/18 A3011 RMK AO2 SLP191 T02280183 $
KCMH 251551Z 12010KT 10SM FEW060 SCT080 BKN100 OVC250 22/18 A3014 RMK AO2 SLP201 T02170178
KCMH 251451Z 11009KT 10SM SCT080 BKN110 OVC250 21/17 A3014 RMK AO2 SLP202 T02060167 56003
KCMH 251351Z 11008KT 10SM SCT080 BKN110 BKN250 21/17 A3014 RMK AO2 SLP202 T02110172
KCMH 251251Z 11010KT 10SM FEW090 SCT150 BKN250 18/16 A3014 RMK AO2 SLP202 T01830156
KCMH 251151Z 12009KT 10SM FEW090 SCT110 BKN150 18/16 A3015 RMK AO2 SLP204 T01830161 10183 20161 53004
KCMH 251051Z 10008KT 10SM SCT110 OVC130 17/16 A3014 RMK AO2 SLP201 T01720161
KCMH 250951Z 11006KT 10SM OVC140 17/17 A3013 RMK AO2 SLP199 T01720167
KCMH 250851Z 10006KT 10SM OVC140 17/17 A3014 RMK AO2 SLP200 T01720167 55003
KCMH 250751Z 09007KT 10SM BKN140 OVC250 17/16 A3012 RMK AO2 SLP197 T01670161
KCMH 250651Z 10004KT 10SM BKN250 17/16 A3013 RMK AO2 SLP199 T01670161
KCMH 250551Z 11004KT 10SM BKN250 17/16 A3015 RMK AO2 SLP204 T01720161 10222 20161 58005
KCMH 250451Z 11004KT 10SM SCT250 17/16 A3016 RMK AO2 SLP209 T01720156 402440106
KCMH 250351Z 09004KT 10SM SCT250 18/16 A3016 RMK AO2 SLP210 T01830156
KCMH 250251Z 11005KT 10SM BKN250 19/15 A3016 RMK AO2 SLP210 T01940150 53008
KCMH 250151Z 08003KT 10SM FEW050 BKN250 20/14 A3014 RMK AO2 SLP203 T02000144
KCMH 250051Z 09003KT 10SM SCT055 BKN250 21/14 A3014 RMK AO2 SLP203 T02060139
KCMH 242351Z 12006KT 10SM SCT055 BKN250 22/13 A3014 RMK AO2 SLP203 T02220133 10244 20217 53000
KCMH 242251Z 09007KT 10SM FEW055 BKN250 23/14 A3013 RMK AO2 SLP201 T02330139
KCMH 242151Z 00000KT 10SM FEW055 BKN250 24/13 A3013 RMK AO2 SLP201 T02390133
KCMH 242051Z 03006KT 10SM FEW050 BKN250 24/13 A3013 RMK AO2 SLP202 T02390133 56010
KCMH 241951Z 06003KT 10SM FEW250 23/13 A3014 RMK AO2 SLP204 T02330128
KCMH 241851Z 10007KT 10SM CLR 23/13 A3015 RMK AO2 SLP207 T02280128
KCMH 241751Z 07005KT 10SM CLR 22/13 A3017 RMK AO2 SLP213 T02170128 10217 20117 58007
KCMH 241651Z 04009KT 10SM CLR 21/12 A3019 RMK AO2 SLP221 T02060122
KCMH 241551Z 04009KT 10SM FEW250 19/12 A3019 RMK AO2 SLP221 T01940122
KCMH 241451Z 03007KT 10SM FEW250 18/12 A3019 RMK AO2 SLP220 T01830117 50002
KCMH 241351Z 07006KT 10SM FEW070 FEW250 16/10 A3019 RMK AO2 SLP222 T01610100
KCMH 241251Z 05005KT 10SM SCT060 14/09 A3019 RMK AO2 SLP222 T01440089
KCMH 241151Z 04007KT 10SM FEW060 BKN070 BKN250 12/07 A3018 RMK AO2 SLP219 T01170072 10117 20106 51010
KCMH 241051Z 01006KT 10SM BKN070 BKN250 11/06 A3018 RMK AO2 SLP219 T01110061
KCMH 240951Z 02005KT 10SM BKN060 11/06 A3016 RMK AO2 SLP213 T01110056
KCMH 240851Z 02005KT 10SM BKN055 11/06 A3015 RMK AO2 SLP208 T01060061 55006